Wolcottville, Indiana
Current Conditions -  °F | °C
As of 2:35 PM on Friday 31 Oct 2014 (Local Time) from KANQ Reporting Station
NA  
Wind Chill: 39°   Ceiling: NA
Heat Index: 43°   Visibility: NA
Dew Point: 30°   Wind: 6mph
Humidity: 61%   Direction: 350°N
Pressure: 29.91"   Gusts: NA
Location:  41.53°N, 85.37°W
Report Text: KANQ 311835Z AUTO 35005KT 06/M01 A2991 RMK
Loading
Personal Weather Stations






























Interactive Weather Map
Tropical Storm Tracking
New forecast layout! Learn more

10-Day Weather Forecast

Advertisements
Track Severe Weather on mobile